Time;durP1;ratioP1;P1;durP2;ratioP2;P2;SDS_P1;SDS_P2;PMS_P1;PMS_P2;Temp;Humidity;BMP_temperature;BMP_pressure;BME280_temperature;BME280_humidity;BME280_pressure;Samples;Min_cycle;Max_cycle;Signal;HPM_P1;HPM_P2
2021/09/03 00:00:46;;;;;;;12.10;7.80;;;;;;;14.29;67.62;101485.81;4881277;28;98203;-67
2021/09/03 00:03:12;;;;;;;11.57;7.78;;;;;;;14.24;67.66;101479.31;4880992;28;98561;-62
2021/09/03 00:05:38;;;;;;;9.30;7.90;;;;;;;14.23;67.83;101477.69;4880861;28;97655;-62
2021/09/03 00:08:04;;;;;;;8.80;7.80;;;;;;;14.22;67.66;101481.47;4880038;28;128159;-67
2021/09/03 00:10:30;;;;;;;10.30;7.38;;;;;;;14.20;67.57;101480.13;4878421;28;111092;-67
2021/09/03 00:12:58;;;;;;;10.68;6.78;;;;;;;14.16;67.34;101471.69;4881021;28;97855;-67
2021/09/03 00:15:24;;;;;;;9.45;7.25;;;;;;;14.11;67.16;101476.28;4881700;28;97948;-62
2021/09/03 00:17:50;;;;;;;11.23;7.55;;;;;;;14.03;67.45;101477.63;4880073;28;128470;-67
2021/09/03 00:20:16;;;;;;;8.80;7.18;;;;;;;14.00;67.52;101475.44;4880458;28;127914;-67
2021/09/03 00:22:43;;;;;;;9.68;6.68;;;;;;;13.99;67.76;101462.97;4883450;28;98033;-67
2021/09/03 00:25:10;;;;;;;10.23;7.55;;;;;;;13.96;67.83;101469.75;4883949;28;97785;-67
2021/09/03 00:27:36;;;;;;;10.07;7.00;;;;;;;13.94;67.39;101462.94;4882208;28;98408;-62
2021/09/03 00:30:04;;;;;;;10.85;7.60;;;;;;;13.90;67.16;101465.38;4883583;28;126340;-67
2021/09/03 00:32:30;;;;;;;8.48;6.93;;;;;;;13.86;67.50;101461.56;4882983;28;119162;-63
2021/09/03 00:34:56;;;;;;;9.68;7.28;;;;;;;13.81;67.58;101458.84;4882694;28;121975;-67
2021/09/03 00:37:22;;;;;;;10.02;8.15;;;;;;;13.75;67.45;101465.31;4883095;28;98083;-67
2021/09/03 00:39:48;;;;;;;8.85;7.72;;;;;;;13.70;67.54;101457.97;4882682;28;129031;-67
2021/09/03 00:42:15;;;;;;;11.70;8.10;;;;;;;13.67;67.75;101461.19;4883563;28;98010;-65
2021/09/03 00:44:41;;;;;;;11.80;7.78;;;;;;;13.64;67.75;101467.16;4882492;28;111542;-67
2021/09/03 00:47:07;;;;;;;10.20;7.68;;;;;;;13.62;67.92;101465.78;4883047;28;116887;-67
2021/09/03 00:49:35;;;;;;;13.30;8.23;;;;;;;13.61;67.55;101470.41;4883017;28;128722;-63
2021/09/03 00:52:04;;;;;;;11.52;8.00;;;;;;;13.59;67.55;101467.13;4884126;28;98097;-63
2021/09/03 00:54:30;;;;;;;12.63;7.28;;;;;;;13.59;67.53;101464.41;4884462;28;97787;-62
2021/09/03 00:56:57;;;;;;;12.02;7.45;;;;;;;13.58;67.51;101461.97;4884570;28;97872;-67
2021/09/03 00:59:23;;;;;;;8.70;7.10;;;;;;;13.54;67.46;101458.97;4865668;28;115412;-62
2021/09/03 01:01:49;;;;;;;9.98;7.13;;;;;;;13.49;67.62;101451.66;4865124;28;126368;-67
2021/09/03 01:04:15;;;;;;;8.43;6.90;;;;;;;13.45;67.55;101453.25;4881331;28;102769;-62
2021/09/03 01:06:41;;;;;;;8.43;7.47;;;;;;;13.43;67.62;101455.38;4880638;28;126127;-67
2021/09/03 01:09:07;;;;;;;8.90;7.43;;;;;;;13.41;68.08;101443.22;4881421;28;126250;-67
2021/09/03 01:11:33;;;;;;;10.27;7.55;;;;;;;13.39;67.69;101442.63;4879958;28;125524;-62
2021/09/03 01:13:59;;;;;;;9.32;7.70;;;;;;;13.36;67.51;101445.88;4881346;28;125972;-62
2021/09/03 01:16:25;;;;;;;10.20;7.85;;;;;;;13.32;67.65;101448.28;4883296;28;101523;-67
2021/09/03 01:18:51;;;;;;;8.40;7.57;;;;;;;13.27;67.81;101443.66;4882245;28;98487;-62
2021/09/03 01:21:17;;;;;;;9.90;7.45;;;;;;;13.29;68.26;101442.59;4848650;28;127550;-67
2021/09/03 01:23:43;;;;;;;9.23;7.78;;;;;;;13.28;67.93;101441.75;4883157;28;113604;-62
2021/09/03 01:26:11;;;;;;;10.68;8.18;;;;;;;13.25;67.52;101445.00;4879892;28;127790;-62
2021/09/03 01:28:37;;;;;;;9.70;7.70;;;;;;;13.21;67.64;101452.00;4881862;28;98493;-67
2021/09/03 01:31:03;;;;;;;10.85;8.23;;;;;;;13.18;67.74;101444.38;4880668;28;117413;-62
2021/09/03 01:33:29;;;;;;;9.65;7.60;;;;;;;13.15;67.72;101443.00;4847779;28;97794;-62
2021/09/03 01:35:55;;;;;;;8.60;7.50;;;;;;;13.14;67.86;101443.28;4882456;28;125458;-62
2021/09/03 01:38:23;;;;;;;8.82;7.25;;;;;;;13.12;67.64;101440.00;4882500;28;126769;-67
2021/09/03 01:40:49;;;;;;;8.27;6.97;;;;;;;13.07;67.55;101438.09;4882045;28;105235;-62
2021/09/03 01:43:15;;;;;;;9.45;6.90;;;;;;;13.03;67.84;101429.66;4881629;28;99082;-63
2021/09/03 01:45:41;;;;;;;9.27;6.60;;;;;;;13.03;67.88;101434.28;4881353;28;98666;-67
2021/09/03 01:48:07;;;;;;;9.68;7.20;;;;;;;13.03;67.77;101439.69;4882779;28;98172;-67
2021/09/03 01:50:33;;;;;;;9.95;7.30;;;;;;;13.03;67.83;101428.84;4881743;28;128217;-67
2021/09/03 01:53:00;;;;;;;8.35;6.63;;;;;;;13.02;67.89;101430.75;4863950;28;121919;-67
2021/09/03 01:55:26;;;;;;;10.75;7.50;;;;;;;12.99;67.79;101427.75;4882160;28;125852;-63
2021/09/03 01:57:52;;;;;;;8.55;7.05;;;;;;;12.97;67.56;101424.50;4882316;28;98417;-62
2021/09/03 02:00:18;;;;;;;9.55;6.97;;;;;;;12.94;67.63;101422.31;4882298;28;97991;-63
2021/09/03 02:02:44;;;;;;;8.20;6.85;;;;;;;12.91;67.50;101418.22;4881857;28;123236;-67
2021/09/03 02:05:10;;;;;;;10.27;6.72;;;;;;;12.88;67.52;101426.03;4883222;28;98750;-63
2021/09/03 02:07:37;;;;;;;8.55;6.57;;;;;;;12.84;67.64;101420.31;4881795;28;99182;-67
2021/09/03 02:10:05;;;;;;;7.65;6.47;;;;;;;12.81;67.72;101411.91;4882864;28;97864;-67
2021/09/03 02:12:31;;;;;;;7.30;6.30;;;;;;;12.76;67.67;101421.63;4882581;28;97886;-62
2021/09/03 02:14:57;;;;;;;8.25;6.47;;;;;;;12.77;67.71;101419.72;4882854;28;98320;-67
2021/09/03 02:17:23;;;;;;;7.97;5.80;;;;;;;12.77;67.78;101417.03;4882302;28;115390;-67
2021/09/03 02:19:49;;;;;;;7.32;6.18;;;;;;;12.78;67.40;101418.66;4882126;28;127645;-67
2021/09/03 02:22:15;;;;;;;7.03;6.25;;;;;;;12.80;67.76;101418.41;4882278;28;122853;-62
2021/09/03 02:24:41;;;;;;;6.97;6.28;;;;;;;12.82;67.87;101410.84;4881643;28;127627;-63
2021/09/03 02:27:07;;;;;;;8.70;6.47;;;;;;;12.81;68.10;101412.75;4879044;28;128875;-67
2021/09/03 02:29:33;;;;;;;11.27;7.85;;;;;;;12.81;68.08;101411.91;4882930;28;97957;-67
2021/09/03 02:31:59;;;;;;;11.45;7.97;;;;;;;12.81;68.53;101414.63;4880538;28;102297;-67
2021/09/03 02:34:25;;;;;;;23.67;9.38;;;;;;;12.80;68.66;101408.38;4882156;28;127792;-68
2021/09/03 02:36:51;;;;;;;25.45;9.68;;;;;;;12.76;68.73;101413.50;4879759;28;128048;-66
2021/09/03 02:39:17;;;;;;;16.13;9.65;;;;;;;12.72;69.13;101396.16;4881895;28;127198;-67
2021/09/03 02:41:43;;;;;;;12.63;8.98;;;;;;;12.72;69.44;101398.88;4881397;28;122859;-63
2021/09/03 02:44:09;;;;;;;14.38;9.02;;;;;;;12.73;69.29;101394.25;4880164;28;98623;-62
2021/09/03 02:46:36;;;;;;;15.13;9.15;;;;;;;12.73;69.55;101402.38;4863292;28;127357;-67
2021/09/03 02:49:02;;;;;;;13.52;8.77;;;;;;;12.71;69.56;101397.25;4881468;28;117323;-62
2021/09/03 02:51:28;;;;;;;12.55;8.98;;;;;;;12.71;69.58;101405.34;4881342;28;123022;-67
2021/09/03 02:53:54;;;;;;;16.45;8.60;;;;;;;12.70;69.52;101397.50;4864606;28;98862;-62
2021/09/03 02:56:20;;;;;;;22.52;8.95;;;;;;;12.67;69.44;101398.03;4881330;28;128654;-62
2021/09/03 02:58:46;;;;;;;13.50;9.10;;;;;;;12.62;69.74;101379.88;4880809;28;128024;-67
2021/09/03 03:01:12;;;;;;;14.00;9.88;;;;;;;12.62;70.02;101393.41;4881463;28;97792;-67
2021/09/03 03:03:38;;;;;;;13.80;9.75;;;;;;;12.59;69.52;101385.78;4881064;28;98285;-67
2021/09/03 03:06:04;;;;;;;15.88;9.55;;;;;;;12.56;69.38;101380.88;4862659;28;127664;-67
2021/09/03 03:08:30;;;;;;;11.82;8.68;;;;;;;12.53;69.68;101386.81;4879362;28;126757;-62
2021/09/03 03:10:56;;;;;;;13.52;9.77;;;;;;;12.49;69.55;101378.38;4879258;28;122524;-62
2021/09/03 03:13:27;;;;;;;17.63;10.77;;;;;;;12.49;69.89;101381.09;4880873;28;127379;-62
2021/09/03 03:15:54;;;;;;;15.95;10.75;;;;;;;12.45;69.76;101381.88;4880293;28;98628;-67
2021/09/03 03:18:20;;;;;;;18.52;10.50;;;;;;;12.44;69.87;101385.66;4879319;28;98069;-67
2021/09/03 03:20:47;;;;;;;17.73;10.45;;;;;;;12.43;70.03;101370.50;4864151;28;98156;-67
2021/09/03 03:23:13;;;;;;;26.65;11.50;;;;;;;12.42;69.78;101374.31;4864215;28;98207;-62
2021/09/03 03:25:40;;;;;;;18.08;10.15;;;;;;;12.41;69.95;101369.94;4881715;28;98399;-67
2021/09/03 03:28:06;;;;;;;36.13;12.35;;;;;;;12.39;69.79;101378.31;4881685;28;98195;-67
2021/09/03 03:30:32;;;;;;;18.13;11.75;;;;;;;12.36;70.06;101368.00;4881077;28;114170;-67
2021/09/03 03:32:58;;;;;;;28.05;10.98;;;;;;;12.33;69.72;101362.31;4880725;28;127957;-67
2021/09/03 03:35:24;;;;;;;16.67;10.20;;;;;;;12.28;69.89;101358.50;4863658;28;99675;-67
2021/09/03 03:37:51;;;;;;;19.08;10.55;;;;;;;12.26;69.81;101355.25;4877899;28;127183;-67
2021/09/03 03:40:17;;;;;;;13.93;9.73;;;;;;;12.25;70.22;101356.28;4882234;28;97859;-62
2021/09/03 03:42:43;;;;;;;15.02;9.32;;;;;;;12.26;69.96;101355.25;4863579;28;98340;-67
2021/09/03 03:45:10;;;;;;;12.50;9.00;;;;;;;12.29;70.00;101351.19;4881313;28;120416;-62
2021/09/03 03:47:36;;;;;;;14.80;8.50;;;;;;;12.31;69.59;101342.84;4881274;28;98144;-67
2021/09/03 03:50:04;;;;;;;14.85;10.20;;;;;;;12.37;69.95;101355.31;4881322;28;97779;-62
2021/09/03 03:52:30;;;;;;;12.75;9.45;;;;;;;12.45;70.31;101341.31;4881656;28;103751;-62
2021/09/03 03:54:56;;;;;;;18.45;10.75;;;;;;;12.51;70.11;101343.81;4881944;28;109804;-67
2021/09/03 03:57:22;;;;;;;17.38;10.75;;;;;;;12.58;70.24;101340.91;4883137;28;125589;-67
2021/09/03 03:59:48;;;;;;;14.50;10.05;;;;;;;12.63;70.08;101337.41;4884006;28;123524;-62
2021/09/03 04:02:14;;;;;;;16.20;10.65;;;;;;;12.65;70.14;101341.47;4880527;28;125569;-62
2021/09/03 04:04:40;;;;;;;14.88;10.05;;;;;;;12.66;70.07;101339.59;4881931;28;126821;-62
2021/09/03 04:07:06;;;;;;;21.90;10.63;;;;;;;12.67;69.69;101339.31;4880931;28;128102;-62
2021/09/03 04:09:32;;;;;;;12.70;9.07;;;;;;;12.69;70.07;101334.47;4884670;28;97788;-68
2021/09/03 04:11:58;;;;;;;13.63;9.57;;;;;;;12.71;69.80;101332.31;4881654;28;127559;-62
2021/09/03 04:14:24;;;;;;;12.73;9.73;;;;;;;12.72;70.16;101336.66;4884540;28;127857;-67
2021/09/03 04:16:50;;;;;;;13.52;10.35;;;;;;;12.74;69.82;101334.50;4882373;28;100282;-62
2021/09/03 04:19:16;;;;;;;15.43;10.98;;;;;;;12.75;69.92;101335.31;4882147;28;121348;-62
2021/09/03 04:21:42;;;;;;;15.02;10.73;;;;;;;12.76;69.93;101335.03;4881964;28;112107;-67
2021/09/03 04:24:09;;;;;;;16.85;11.02;;;;;;;12.77;69.61;101342.13;4883911;28;128246;-67
2021/09/03 04:26:35;;;;;;;30.05;12.20;;;;;;;12.76;69.71;101337.75;4884400;28;98376;-67
2021/09/03 04:29:01;;;;;;;27.80;12.07;;;;;;;12.74;69.75;101336.41;4883767;28;122605;-62
2021/09/03 04:31:27;;;;;;;26.73;11.48;;;;;;;12.72;70.02;101333.94;4882471;28;128668;-67
2021/09/03 04:33:53;;;;;;;24.60;11.07;;;;;;;12.70;69.96;101335.28;4882412;28;126956;-62
2021/09/03 04:36:19;;;;;;;15.90;10.48;;;;;;;12.69;69.59;101329.06;4878872;28;127409;-62
2021/09/03 04:38:45;;;;;;;13.80;10.85;;;;;;;12.68;69.57;101338.25;4892782;28;123112;-63
2021/09/03 04:41:11;;;;;;;14.68;11.02;;;;;;;12.69;69.83;101326.38;4880525;28;114422;-63
2021/09/03 04:43:37;;;;;;;16.63;11.55;;;;;;;12.68;69.74;101332.84;4881350;28;103945;-67
2021/09/03 04:46:03;;;;;;;18.60;10.65;;;;;;;12.70;69.53;101329.88;4880491;28;117784;-67
2021/09/03 04:48:29;;;;;;;13.90;10.95;;;;;;;12.71;69.35;101326.09;4877579;28;122957;-62
2021/09/03 04:50:55;;;;;;;15.13;11.52;;;;;;;12.71;69.71;101329.63;4882561;28;112549;-62
2021/09/03 04:53:21;;;;;;;36.45;12.60;;;;;;;12.74;69.73;101322.88;4883915;28;127792;-62
2021/09/03 04:55:48;;;;;;;21.20;11.77;;;;;;;12.77;69.94;101323.16;4879423;28;126347;-62
2021/09/03 04:58:14;;;;;;;19.58;11.35;;;;;;;12.79;69.76;101328.31;4880182;28;97912;-67
2021/09/03 05:00:40;;;;;;;22.83;12.07;;;;;;;12.82;69.34;101326.97;4879797;28;128129;-63
2021/09/03 05:03:06;;;;;;;14.32;10.77;;;;;;;12.84;69.77;101325.63;4896451;28;128246;-62
2021/09/03 05:05:32;;;;;;;14.30;10.80;;;;;;;12.88;69.89;101321.31;4883152;28;97778;-62
2021/09/03 05:07:58;;;;;;;13.77;10.05;;;;;;;12.93;69.56;101324.06;4880778;28;120906;-67
2021/09/03 05:10:24;;;;;;;15.43;10.48;;;;;;;12.98;69.26;101318.69;4896912;28;118258;-67
2021/09/03 05:12:50;;;;;;;25.10;11.23;;;;;;;13.02;69.00;101316.28;4881261;28;98665;-63
2021/09/03 05:15:17;;;;;;;15.57;10.90;;;;;;;13.05;69.15;101320.31;4882426;28;126467;-67
2021/09/03 05:17:48;;;;;;;12.00;9.32;;;;;;;13.08;69.08;101319.81;4865517;28;97822;-62
2021/09/03 05:20:14;;;;;;;11.63;9.38;;;;;;;13.15;69.02;101323.91;4881146;28;98520;-63
2021/09/03 05:22:40;;;;;;;13.32;10.25;;;;;;;13.23;68.82;101328.84;4882015;28;114919;-67
2021/09/03 05:25:09;;;;;;;12.50;9.05;;;;;;;13.31;68.35;101324.00;4883720;28;97670;-67
2021/09/03 05:27:38;;;;;;;11.30;9.20;;;;;;;13.38;68.30;101322.69;4883481;28;98023;-67
2021/09/03 05:30:05;;;;;;;13.57;10.30;;;;;;;13.44;68.08;101324.34;4882654;28;98976;-62
2021/09/03 05:32:31;;;;;;;12.75;9.85;;;;;;;13.53;68.01;101323.81;4882735;28;113334;-67
2021/09/03 05:34:57;;;;;;;12.25;10.07;;;;;;;13.60;67.93;101317.06;4881566;28;127994;-67
2021/09/03 05:37:23;;;;;;;12.73;10.93;;;;;;;13.68;67.82;101327.38;4864754;28;105822;-67
2021/09/03 05:39:49;;;;;;;11.38;9.55;;;;;;;13.77;67.57;101322.25;4897087;28;126460;-67
2021/09/03 05:42:15;;;;;;;11.75;10.38;;;;;;;13.84;67.49;101322.81;4896489;28;127768;-68
2021/09/03 05:44:41;;;;;;;12.35;10.60;;;;;;;13.89;67.39;101322.81;4897582;28;97931;-63
2021/09/03 05:47:07;;;;;;;12.82;10.48;;;;;;;14.00;67.34;101320.94;4882839;28;97898;-62
2021/09/03 05:49:33;;;;;;;11.95;9.77;;;;;;;14.10;67.27;101322.84;4863873;28;128286;-67
2021/09/03 05:51:59;;;;;;;11.02;9.82;;;;;;;14.18;66.95;101317.69;4865696;28;100491;-62
2021/09/03 05:54:25;;;;;;;11.30;10.02;;;;;;;14.31;66.72;101323.69;4880643;28;128240;-63
2021/09/03 05:56:51;;;;;;;10.90;9.57;;;;;;;14.41;66.56;101315.50;4896993;28;120718;-67
2021/09/03 05:59:17;;;;;;;11.40;10.20;;;;;;;14.52;66.68;101309.03;4882891;28;98942;-68
2021/09/03 06:01:43;;;;;;;11.15;9.57;;;;;;;14.64;66.14;101314.16;4882061;28;126076;-67
2021/09/03 06:04:09;;;;;;;10.90;9.80;;;;;;;14.75;66.27;101313.06;4882745;28;97975;-67
2021/09/03 06:06:35;;;;;;;11.02;9.23;;;;;;;14.88;66.16;101306.25;4881770;28;123022;-63
2021/09/03 06:09:02;;;;;;;11.27;10.15;;;;;;;14.93;65.71;101315.22;4880740;28;97993;-68
2021/09/03 06:11:28;;;;;;;9.80;8.90;;;;;;;15.07;65.29;101312.69;4879211;28;98467;-67
2021/09/03 06:13:54;;;;;;;9.98;8.98;;;;;;;15.19;65.18;101310.47;4881011;28;125687;-63
2021/09/03 06:16:21;;;;;;;11.68;10.45;;;;;;;15.23;65.19;101308.84;4881528;28;106611;-63
2021/09/03 06:18:47;;;;;;;10.20;9.20;;;;;;;15.32;65.72;101306.34;4879715;28;98178;-67
2021/09/03 06:21:13;;;;;;;10.73;9.65;;;;;;;15.43;65.21;101307.94;4880917;28;99179;-67
2021/09/03 06:23:39;;;;;;;11.05;10.05;;;;;;;15.52;65.41;101304.63;4881944;28;97936;-63
2021/09/03 06:26:05;;;;;;;10.98;9.70;;;;;;;15.65;65.06;101294.00;4881387;28;120786;-63
2021/09/03 06:28:32;;;;;;;11.57;10.38;;;;;;;15.77;64.81;101295.56;4879707;28;126731;-63
2021/09/03 06:30:58;;;;;;;11.48;10.38;;;;;;;15.89;64.83;101283.22;4881818;28;98793;-67
2021/09/03 06:33:24;;;;;;;12.45;11.20;;;;;;;16.02;64.56;101284.47;4881489;28;123440;-67
2021/09/03 06:35:50;;;;;;;12.55;11.35;;;;;;;16.12;64.65;101289.03;4895516;28;123803;-63
2021/09/03 06:38:16;;;;;;;12.68;10.60;;;;;;;16.23;64.87;101287.03;4892870;28;98014;-68
2021/09/03 06:40:42;;;;;;;11.35;10.15;;;;;;;16.39;64.86;101297.50;4898989;28;126910;-63
2021/09/03 06:43:08;;;;;;;11.27;10.18;;;;;;;16.69;64.22;101281.97;4900171;28;125467;-68
2021/09/03 06:45:34;;;;;;;12.15;10.95;;;;;;;17.17;63.29;101279.25;4893386;28;98002;-63
2021/09/03 06:48:00;;;;;;;11.18;10.05;;;;;;;17.48;62.84;101279.66;4897870;28;127223;-63
2021/09/03 06:50:26;;;;;;;11.98;10.57;;;;;;;17.79;62.18;101282.78;4900820;28;98455;-63
2021/09/03 06:52:52;;;;;;;11.73;10.40;;;;;;;18.18;61.64;101281.63;4883118;28;125686;-63
2021/09/03 06:55:18;;;;;;;12.30;11.07;;;;;;;18.49;60.73;101284.63;4901019;28;111003;-63
2021/09/03 06:57:44;;;;;;;12.45;11.15;;;;;;;18.69;60.65;101279.91;4882400;28;127596;-67
2021/09/03 07:00:11;;;;;;;14.35;11.80;;;;;;;18.80;60.53;101279.44;4890949;28;128632;-68
2021/09/03 07:02:38;;;;;;;13.48;12.07;;;;;;;18.84;60.29;101274.97;4880893;28;105118;-67
2021/09/03 07:05:04;;;;;;;13.18;11.77;;;;;;;18.75;60.73;101276.81;4900818;28;120676;-62
2021/09/03 07:07:31;;;;;;;14.90;13.43;;;;;;;18.71;60.82;101269.53;4900429;28;113553;-63
2021/09/03 07:09:57;;;;;;;14.52;13.07;;;;;;;18.67;60.99;101263.84;4900889;28;126314;-68
2021/09/03 07:12:24;;;;;;;14.55;13.15;;;;;;;18.68;61.05;101259.19;4900743;28;98051;-63
2021/09/03 07:14:50;;;;;;;14.80;13.30;;;;;;;18.64;61.04;101259.78;4900896;28;100568;-62
2021/09/03 07:17:17;;;;;;;13.88;12.48;;;;;;;18.65;61.30;101255.13;4882805;28;100389;-63
2021/09/03 07:19:43;;;;;;;15.02;13.43;;;;;;;18.68;61.63;101253.72;4882681;28;100348;-62
2021/09/03 07:22:09;;;;;;;14.13;12.43;;;;;;;18.71;61.55;101259.41;4895221;28;107358;-63
2021/09/03 07:24:35;;;;;;;14.85;13.32;;;;;;;18.80;61.35;101263.06;4879472;28;121664;-67
2021/09/03 07:27:03;;;;;;;14.88;13.07;;;;;;;18.89;61.49;101261.22;4880268;28;129265;-67
2021/09/03 07:29:29;;;;;;;15.35;13.57;;;;;;;19.01;61.35;101262.63;4880604;28;128973;-62
2021/09/03 07:31:55;;;;;;;15.05;13.48;;;;;;;19.11;61.34;101265.97;4880658;28;128052;-67
2021/09/03 07:34:21;;;;;;;14.40;12.90;;;;;;;19.25;61.26;101262.41;4881080;28;118358;-68
2021/09/03 07:36:47;;;;;;;14.88;13.30;;;;;;;19.39;61.02;101257.72;4880497;28;128199;-63
2021/09/03 07:39:18;;;;;;;14.23;12.73;;;;;;;19.55;61.01;101255.44;4880716;28;128660;-63
2021/09/03 07:41:45;;;;;;;15.30;13.63;;;;;;;19.71;60.46;101248.53;4879814;28;98742;-67
2021/09/03 07:44:11;;;;;;;14.35;12.75;;;;;;;19.90;60.36;101256.56;4882153;28;97941;-67
2021/09/03 07:46:37;;;;;;;14.02;12.20;;;;;;;20.09;60.08;101254.44;4881066;28;99037;-63
2021/09/03 07:49:05;;;;;;;13.18;11.77;;;;;;;20.34;59.55;101252.97;4880661;28;127912;-63
2021/09/03 07:51:32;;;;;;;12.70;11.40;;;;;;;20.62;58.74;101244.59;4881247;28;97913;-63
2021/09/03 07:53:58;;;;;;;12.27;10.98;;;;;;;20.97;58.07;101252.91;4863997;28;98086;-67
2021/09/03 07:56:24;;;;;;;11.93;10.73;;;;;;;21.36;57.14;101248.50;4879271;28;127996;-63
2021/09/03 07:58:50;;;;;;;12.70;11.40;;;;;;;21.84;56.15;101253.03;4898732;28;126908;-63
2021/09/03 08:01:16;;;;;;;11.05;9.85;;;;;;;22.42;55.25;101251.63;4900212;28;98550;-68
2021/09/03 08:03:42;;;;;;;11.93;10.15;;;;;;;23.02;53.63;101245.06;4885900;28;120239;-68
2021/09/03 08:06:08;;;;;;;12.68;10.20;;;;;;;23.63;52.53;101242.69;4878908;28;126803;-68
2021/09/03 08:08:34;;;;;;;11.48;9.07;;;;;;;24.26;51.05;101253.59;4878532;28;128271;-63
2021/09/03 08:11:01;;;;;;;11.55;9.93;;;;;;;24.92;49.65;101256.22;4880266;28;97892;-63
2021/09/03 08:13:27;;;;;;;11.00;9.20;;;;;;;25.54;48.46;101245.06;4881296;28;97799;-67
2021/09/03 08:15:53;;;;;;;9.65;8.65;;;;;;;26.24;47.36;101252.94;4863396;28;98146;-63
2021/09/03 08:18:19;;;;;;;9.38;8.38;;;;;;;26.87;46.42;101252.97;4862527;28;128008;-63
2021/09/03 08:20:45;;;;;;;10.00;8.05;;;;;;;27.46;45.23;101256.66;4881296;28;97966;-63
2021/09/03 08:23:12;;;;;;;9.57;8.60;;;;;;;28.12;43.78;101252.84;4884432;28;97709;-67
2021/09/03 08:25:39;;;;;;;9.02;8.00;;;;;;;28.84;42.29;101244.56;4900146;28;98101;-68
2021/09/03 08:28:05;;;;;;;8.98;8.07;;;;;;;29.58;40.69;101251.59;4899769;28;98422;-63
2021/09/03 08:30:31;;;;;;;8.73;7.07;;;;;;;30.39;39.94;101239.75;4899000;28;117996;-63
2021/09/03 08:32:57;;;;;;;6.85;6.15;;;;;;;31.22;38.54;101230.78;4900259;28;98064;-63
2021/09/03 08:35:24;;;;;;;8.27;6.55;;;;;;;31.94;37.71;101239.44;4899542;28;119500;-63
2021/09/03 08:37:51;;;;;;;7.50;6.80;;;;;;;32.54;36.47;101235.94;4899249;28;99007;-63
2021/09/03 08:40:17;;;;;;;8.18;6.80;;;;;;;33.16;34.70;101238.22;4899913;28;98280;-68
2021/09/03 08:42:43;;;;;;;8.90;6.72;;;;;;;33.78;34.15;101241.56;4887401;28;123767;-63
2021/09/03 08:45:11;;;;;;;8.65;6.10;;;;;;;34.31;32.99;101240.41;4895475;28;98665;-68
2021/09/03 08:47:40;;;;;;;7.93;6.63;;;;;;;34.70;33.63;101231.69;4903358;28;99112;-63
2021/09/03 08:50:08;;;;;;;8.65;5.50;;;;;;;35.17;32.63;101221.63;4903208;28;97849;-63
2021/09/03 08:52:34;;;;;;;6.68;5.95;;;;;;;35.80;31.02;101229.59;4900949;28;97916;-63
2021/09/03 08:55:00;;;;;;;7.28;6.03;;;;;;;36.38;29.84;101221.09;4902756;28;98349;-64
2021/09/03 08:57:26;;;;;;;8.77;5.90;;;;;;;36.82;29.33;101213.50;4901695;28;127163;-66
2021/09/03 08:59:52;;;;;;;6.90;5.80;;;;;;;37.27;28.87;101210.22;4902345;28;127634;-66
2021/09/03 09:02:20;;;;;;;8.38;6.22;;;;;;;37.75;28.18;101200.34;4884443;28;120781;-62
2021/09/03 09:04:51;;;;;;;6.03;4.90;;;;;;;38.24;27.76;101201.19;4901624;28;98387;-66
2021/09/03 09:07:17;;;;;;;6.45;5.43;;;;;;;38.67;26.53;101202.88;4896974;28;115649;-67
2021/09/03 09:09:44;;;;;;;5.82;4.72;;;;;;;38.90;26.37;101193.41;4866382;28;98320;-62
2021/09/03 09:12:13;;;;;;;6.32;5.03;;;;;;;39.20;25.97;101185.72;4883443;28;97982;-62
2021/09/03 09:15:08;;;;;;;5.85;4.40;;;;;;;39.62;27.09;101180.03;4883614;28;98485;-67
2021/09/03 09:17:36;;;;;;;5.75;4.93;;;;;;;39.60;26.11;101182.50;4882644;28;97874;-62
2021/09/03 09:20:05;;;;;;;9.15;5.35;;;;;;;39.35;26.08;101169.97;4882776;28;97833;-67
2021/09/03 09:22:54;;;;;;;6.00;5.18;;;;;;;38.70;27.70;101164.59;4882907;28;109798;-67
2021/09/03 09:25:28;;;;;;;5.97;4.75;;;;;;;38.17;27.42;101170.41;4883795;28;98629;-67
2021/09/03 09:27:55;;;;;;;6.07;5.20;;;;;;;38.12;26.67;101150.44;4899928;28;99454;-67
2021/09/03 09:30:28;;;;;;;6.22;4.45;;;;;;;38.47;27.23;101146.69;4902265;28;98117;-62
2021/09/03 09:33:33;;;;;;;6.60;5.30;;;;;;;39.58;26.22;101146.31;4902848;28;106247;-67
2021/09/03 09:36:00;;;;;;;8.52;5.25;;;;;;;39.50;25.04;101145.75;4898600;28;98760;-62
2021/09/03 09:38:32;;;;;;;5.30;4.80;;;;;;;40.18;24.54;101145.56;4899206;28;98943;-62
2021/09/03 09:41:07;;;;;;;5.55;4.95;;;;;;;40.85;24.25;101133.06;4898393;28;98160;-67
2021/09/03 09:43:45;;;;;;;6.25;4.68;;;;;;;41.68;23.62;101137.09;4883573;28;97867;-62
2021/09/03 09:46:25;;;;;;;5.82;5.00;;;;;;;41.89;23.27;101130.56;4883672;28;98387;-67
2021/09/03 09:48:52;;;;;;;5.80;4.80;;;;;;;42.06;22.04;101135.94;4899881;28;99020;-62
2021/09/03 09:51:45;;;;;;;6.13;4.88;;;;;;;42.78;22.09;101125.88;4885460;28;98647;-62
2021/09/03 09:54:23;;;;;;;4.95;4.38;;;;;;;43.04;21.84;101120.59;4882186;28;98073;-62
2021/09/03 09:57:15;;;;;;;5.10;4.60;;;;;;;43.61;21.42;101111.41;4896153;28;99202;-62
2021/09/03 09:59:41;;;;;;;7.80;4.72;;;;;;;42.61;21.81;101114.09;4897905;28;127597;-67
2021/09/03 10:02:07;;;;;;;5.38;4.78;;;;;;;42.09;21.49;101101.84;4863200;28;127536;-62
2021/09/03 10:04:33;;;;;;;5.60;4.97;;;;;;;42.61;20.72;101108.41;4897363;28;97856;-67
2021/09/03 10:07:01;;;;;;;5.25;4.75;;;;;;;41.55;22.06;101105.34;4885364;28;98334;-62
2021/09/03 10:09:31;;;;;;;5.97;4.80;;;;;;;41.19;22.63;101092.63;4901350;28;98585;-67
2021/09/03 10:11:58;;;;;;;5.70;4.55;;;;;;;41.49;22.21;101102.31;4900150;28;98152;-63
2021/09/03 10:14:30;;;;;;;4.82;4.30;;;;;;;41.73;22.42;101096.09;4881909;28;112070;-62
2021/09/03 10:16:57;;;;;;;6.57;4.88;;;;;;;41.87;21.85;101099.13;4897009;28;115948;-62
2021/09/03 10:19:35;;;;;;;4.57;4.15;;;;;;;42.13;21.17;101088.31;4901796;28;99270;-67
2021/09/03 10:22:02;;;;;;;4.65;4.25;;;;;;;42.41;21.34;101091.94;4900207;28;98474;-62
2021/09/03 10:24:29;;;;;;;6.15;4.22;;;;;;;42.61;20.96;101084.97;4901363;28;97813;-68
2021/09/03 10:26:56;;;;;;;5.38;4.70;;;;;;;42.73;20.59;101088.91;4900512;28;98544;-65
2021/09/03 10:29:29;;;;;;;6.10;4.80;;;;;;;41.33;22.10;101077.13;4900346;28;98873;-67
2021/09/03 10:32:07;;;;;;;5.00;4.50;;;;;;;42.08;22.16;101074.00;4896937;28;98089;-67
2021/09/03 10:34:39;;;;;;;5.20;4.30;;;;;;;42.16;22.15;101072.41;4884684;28;97901;-67
2021/09/03 10:37:33;;;;;;;5.68;4.78;;;;;;;42.56;21.50;101057.28;4881931;28;98431;-63
2021/09/03 10:40:18;;;;;;;5.40;4.53;;;;;;;42.34;21.03;101066.78;4897308;28;98228;-63
2021/09/03 10:42:45;;;;;;;8.02;4.80;;;;;;;42.44;20.71;101061.88;4901882;28;97921;-63
2021/09/03 10:45:27;;;;;;;6.15;4.70;;;;;;;42.52;21.11;101051.78;4901697;28;97986;-63
2021/09/03 10:47:56;;;;;;;5.97;4.32;;;;;;;42.43;21.22;101048.97;4895996;28;98546;-67
2021/09/03 10:50:35;;;;;;;6.00;4.82;;;;;;;42.58;21.04;101046.28;4881670;28;98660;-67
2021/09/03 10:53:04;;;;;;;4.68;4.22;;;;;;;42.26;20.57;101042.09;4883597;28;97942;-63
2021/09/03 10:55:55;;;;;;;4.70;4.28;;;;;;;42.29;21.73;101029.81;4901379;28;97873;-67
2021/09/03 10:58:39;;;;;;;5.45;4.18;;;;;;;41.08;22.42;101027.28;4900738;28;97928;-67
2021/09/03 11:01:11;;;;;;;5.15;4.13;;;;;;;41.21;22.00;101017.41;4899727;28;98732;-67
2021/09/03 11:03:47;;;;;;;4.78;4.22;;;;;;;39.27;24.00;101005.16;4900122;28;97753;-67
2021/09/03 11:06:22;;;;;;;4.80;3.78;;;;;;;39.69;23.05;101017.03;4900857;28;98000;-67
2021/09/03 11:08:49;;;;;;;4.80;4.03;;;;;;;39.52;22.85;101005.09;4899541;28;97887;-67
2021/09/03 11:11:33;;;;;;;5.00;4.50;;;;;;;38.50;24.03;100999.44;4891379;28;98285;-67
2021/09/03 11:14:01;;;;;;;5.63;4.30;;;;;;;38.95;23.82;101009.00;4881991;28;98277;-63
2021/09/03 11:16:47;;;;;;;5.28;4.78;;;;;;;38.96;24.11;101007.75;4896622;28;107988;-63